Saturday, September 22, 2018, 9:36 AM EDT
Back to Local

KMVY, Vineyard Haven Marthas Vin

Location: Vineyard Haven, MA, United States Lat: 41.4
Local Time: 9:36 AM EDT (13:36 GMT) Lon: -70.617
Time Zone: US/Eastern Elev: 68 ft

Show me the last for .
Show Coded

Time T Td Feel RH Dir Speed Gust Alt SLP Vis Weather Sky Remarks
2018-09-22 08:53 73 58 77 59 290° 13 28 29.99 29.99 10 CLR None
2018-09-22 08:01 73 70 77 90 280° 10 - 29.96 - 8 SCT009 None
2018-09-22 07:53 72 70 76 93 270° 13 24 29.96 29.96 7 BKN010 6-hr Min Temp (8am): 69.1°F
6-hr Max Temp (8am): 72.0°F
2018-09-22 06:53 71 69 76 93 240° 14 24 29.94 29.93 8 BKN013 BKN020 OVC025 None
2018-09-22 05:53 71 69 76 93 220° 16 28 29.91 29.91 9 BKN017 OVC023 Peak wind: 31 mph (27 kts) from 220° at 05 min
2018-09-22 04:53 70 68 - 93 220° 18 28 29.91 29.90 10 OVC029 Peak wind: 29 mph (26 kts) from 220° at 58 min
2018-09-22 04:43 70 68 - 93 210° 21 28 29.91 - 10 OVC029 Peak wind: 29 mph (26 kts) from 220° at 58 min
2018-09-22 03:53 70 68 - 93 210° 17 25 29.92 29.92 10 SCT032 Peak wind: 31 mph (27 kts) from 220° at 36 min
2018-09-22 02:53 69 67 - 92 220° 16 - 29.94 29.94 10 FEW100 None
2018-09-22 01:53 69 67 - 92 210° 18 24 29.97 29.96 10 CLR 6-hr Min Temp (2am): 64.9°F
6-hr Max Temp (2am): 69.1°F
2018-09-22 00:53 69 67 - 92 210° 17 24 30.00 29.99 10 OVC046 24-hr Min Temp (1am): 48.9°F
24-hr Max Temp (1am): 69.1°F
2018-09-21 23:53 68 67 - 96 210° 16 - 30.03 30.02 10 OVC046 None
2018-09-21 22:53 67 65 - 93 200° 16 - 30.04 30.03 10 CLR None
2018-09-21 21:53 67 64 - 90 190° 16 - 30.04 30.04 10 BKN047 None
2018-09-21 20:53 67 63 - 87 190° 14 - 30.05 30.05 10 OVC048 None
2018-09-21 19:53 66 61 - 83 200° 13 - 30.08 30.08 10 BKN047 6-hr Min Temp (8pm): 64.9°F
6-hr Max Temp (8pm): 68.0°F
2018-09-21 18:53 65 60 - 84 190° 13 - 30.09 30.09 10 OVC055 None
2018-09-21 17:53 65 59 - 81 210° 9 - 30.12 30.12 10 SCT050 None
2018-09-21 16:53 67 58 - 72 210° 16 - 30.14 30.14 10 CLR None
2018-09-21 16:18 68 59 - 72 190° 13 - 30.15 - 10 SCT018 None
2018-09-21 15:53 67 59 - 75 180° 13 - 30.16 30.16 10 BKN021 None
2018-09-21 15:00 67 57 - 70 200° 13 - 30.18 - 10 BKN020 None
2018-09-21 14:53 67 58 - 72 190° 12 - 30.19 30.19 10 SCT022 None
2018-09-21 13:53 67 56 - 67 180° 12 - 30.21 30.21 10 CLR 6-hr Min Temp (2pm): 57.0°F
6-hr Max Temp (2pm): 68.0°F
2018-09-21 12:53 67 56 - 67 160° 15 - 30.23 30.22 10 SCT023 None
2018-09-21 11:53 66 54 - 65 160° 9 - 30.25 30.25 10 CLR None
2018-09-21 10:53 66 55 - 67 130° 13 - 30.28 30.28 10 SCT024 None
2018-09-21 09:53 66 54 - 65 110° 9 - 30.30 30.30 10 FEW026 None

Support USWX by starting your Amazon purchase here.